Airport View

Enter AWOS ICAO identifier for current METAR.

ex. KFNL

KRYN 100245Z 23019G23KT 10SM CLR 36/14 A2990 RMK LAST

10 Jul 2020 03:06

Frequency: 133.35

Phone: 520-578-0269

Other Area AWOS: KTUS - KDMA - KAVQ - KOLS

TAF KTUS 092320Z 1000/1024 31010KT P6SM SCT100 BKN250 FM100100 24012G20KT P6SM FEW070 SCT100 BKN200 FM100500 18011KT P6SM SCT140 BKN250 FM100800 14007KT P6SM FEW150 SCT250 FM102000 32009KT P6SM SCT110